createdAt,value
2022-09-28T00:00:36.412Z,17.23
2022-09-28T00:02:04.095Z,17.23
2022-09-28T00:03:15.931Z,17.51
2022-09-28T00:04:34.062Z,18.20
2022-09-28T00:05:41.820Z,18.29
2022-09-28T00:06:52.397Z,18.59
2022-09-28T00:08:00.688Z,18.64
2022-09-28T00:09:09.719Z,18.70
2022-09-28T00:10:21.052Z,19.13
2022-09-28T00:11:29.810Z,19.01
2022-09-28T00:12:37.154Z,19.35
2022-09-28T00:13:45.269Z,19.95
2022-09-28T00:14:55.633Z,20.02
2022-09-28T00:16:11.460Z,20.42
2022-09-28T00:17:24.596Z,20.69
2022-09-28T00:18:32.380Z,20.49
2022-09-28T00:19:42.512Z,20.30
2022-09-28T00:20:50.605Z,20.20
2022-09-28T00:22:00.448Z,20.66
2022-09-28T00:23:12.213Z,21.12
2022-09-28T00:24:27.516Z,21.16
2022-09-28T00:25:39.397Z,20.94
2022-09-28T00:26:50.768Z,21.14
2022-09-28T00:28:00.062Z,21.53
2022-09-28T00:29:08.282Z,21.53
2022-09-28T00:30:18.185Z,21.70
2022-09-28T00:31:28.527Z,21.98
2022-09-28T00:32:37.121Z,21.92
2022-09-28T00:33:46.234Z,22.09
2022-09-28T00:34:54.213Z,22.30
2022-09-28T00:36:02.085Z,22.55
2022-09-28T00:37:12.084Z,22.53
2022-09-28T00:38:21.842Z,22.65
2022-09-28T00:39:37.461Z,22.75
2022-09-28T00:40:44.870Z,23.14
2022-09-28T00:41:53.627Z,23.36
2022-09-28T00:43:01.687Z,23.69
2022-09-28T00:44:35.450Z,24.20
2022-09-28T00:45:43.673Z,24.85
2022-09-28T00:47:16.624Z,25.07
2022-09-28T00:48:24.480Z,25.15
2022-09-28T00:49:35.312Z,25.18
2022-09-28T00:50:42.628Z,25.10
2022-09-28T00:51:49.967Z,25.10
2022-09-28T00:53:12.773Z,25.14
2022-09-28T00:54:20.700Z,25.11
2022-09-28T00:55:51.212Z,25.20
2022-09-28T00:56:58.739Z,25.36
2022-09-28T00:58:07.392Z,25.56
2022-09-28T00:59:16.914Z,25.53
2022-09-28T01:00:25.439Z,25.61
2022-09-28T01:01:34.729Z,25.76
2022-09-28T01:02:43.178Z,25.89
2022-09-28T01:03:51.962Z,26.11
2022-09-28T01:05:00.280Z,26.17
2022-09-28T01:06:08.114Z,26.29
2022-09-28T01:07:16.088Z,26.55
2022-09-28T01:08:24.696Z,26.69
2022-09-28T01:09:33.658Z,26.87
2022-09-28T01:10:42.153Z,27.22
2022-09-28T01:11:54.049Z,27.41
2022-09-28T01:13:02.882Z,27.54
2022-09-28T01:14:14.040Z,27.86
2022-09-28T01:15:23.072Z,28.09
2022-09-28T01:16:55.289Z,28.36
2022-09-28T01:18:26.515Z,28.81
2022-09-28T01:19:37.221Z,29.13
2022-09-28T01:21:06.579Z,29.49
2022-09-28T01:22:47.888Z,29.75
2022-09-28T01:24:11.275Z,30.23
2022-09-28T01:25:47.640Z,30.56
2022-09-28T01:27:38.007Z,30.76
2022-09-28T01:28:49.625Z,30.97
2022-09-28T01:30:10.740Z,31.12
2022-09-28T01:31:18.675Z,31.48
2022-09-28T01:32:30.859Z,31.77
2022-09-28T01:34:02.641Z,32.17
2022-09-28T01:35:23.146Z,32.13
2022-09-28T01:36:47.645Z,32.48
2022-09-28T01:38:05.631Z,32.71
2022-09-28T01:39:19.827Z,32.84
2022-09-28T01:40:28.216Z,32.97
2022-09-28T01:41:39.872Z,33.26
2022-09-28T01:42:49.100Z,33.61
2022-09-28T01:44:00.805Z,33.73
2022-09-28T01:45:12.202Z,33.91
2022-09-28T01:46:22.398Z,34.20
2022-09-28T01:47:30.002Z,34.31
2022-09-28T01:49:05.749Z,34.36
2022-09-28T01:50:19.418Z,35.16
2022-09-28T01:51:36.942Z,35.37
2022-09-28T01:53:07.136Z,35.70
2022-09-28T01:54:22.149Z,35.93
2022-09-28T01:55:36.537Z,36.11
2022-09-28T01:57:15.831Z,36.59
2022-09-28T01:58:35.103Z,37.10
2022-09-28T01:59:45.142Z,37.19
2022-09-28T02:00:57.564Z,37.40
2022-09-28T02:02:14.363Z,37.73
2022-09-28T02:03:25.604Z,37.85
2022-09-28T02:04:45.153Z,37.99
2022-09-28T02:06:05.486Z,38.14
2022-09-28T02:07:36.984Z,38.30
2022-09-28T02:08:50.466Z,38.82
2022-09-28T02:10:01.979Z,38.67
2022-09-28T02:11:21.882Z,38.67
2022-09-28T02:12:37.655Z,38.66
2022-09-28T02:14:05.050Z,39.25
2022-09-28T02:15:36.703Z,39.64
2022-09-28T02:16:51.619Z,39.72
2022-09-28T02:18:04.474Z,39.93
2022-09-28T02:19:19.327Z,39.92
2022-09-28T02:20:27.244Z,39.92
2022-09-28T02:21:46.327Z,39.83
2022-09-28T02:22:55.836Z,39.95
2022-09-28T02:24:05.763Z,40.04
2022-09-28T02:25:13.818Z,40.72
2022-09-28T02:26:21.652Z,40.67
2022-09-28T02:27:53.134Z,40.90
2022-09-28T02:29:03.277Z,40.79
2022-09-28T02:30:11.820Z,40.96
2022-09-28T02:31:19.652Z,41.08
2022-09-28T02:32:27.869Z,40.97
2022-09-28T02:33:39.623Z,41.10
2022-09-28T02:34:47.264Z,41.33
2022-09-28T02:35:54.980Z,41.11
2022-09-28T02:37:03.657Z,41.04
2022-09-28T02:38:16.115Z,40.57
2022-09-28T02:39:24.728Z,40.53
2022-09-28T02:40:34.538Z,40.42
2022-09-28T02:41:54.801Z,40.32
2022-09-28T02:43:08.769Z,40.05
2022-09-28T02:44:45.645Z,39.94
2022-09-28T02:46:14.495Z,40.34
2022-09-28T02:48:10.736Z,40.38
2022-09-28T02:49:36.698Z,40.37
2022-09-28T02:51:01.459Z,40.61
2022-09-28T02:52:24.473Z,41.01
2022-09-28T02:54:08.402Z,40.47
2022-09-28T02:55:41.882Z,40.45
2022-09-28T02:57:07.612Z,40.54
2022-09-28T02:58:27.887Z,40.52
2022-09-28T02:59:42.455Z,40.77
2022-09-28T03:01:07.498Z,40.92
2022-09-28T03:02:24.084Z,40.87
2022-09-28T03:03:57.631Z,40.91
2022-09-28T03:05:17.283Z,40.41
2022-09-28T03:06:47.195Z,40.80
2022-09-28T03:08:03.838Z,41.06
2022-09-28T03:09:33.392Z,41.32
2022-09-28T03:10:43.037Z,41.27
2022-09-28T03:11:55.602Z,41.37
2022-09-28T03:13:03.054Z,41.87
2022-09-28T03:14:11.193Z,41.99
2022-09-28T03:15:26.598Z,41.70
2022-09-28T03:16:34.383Z,41.65
2022-09-28T03:17:41.838Z,41.53
2022-09-28T03:18:49.190Z,41.91
2022-09-28T03:19:56.571Z,42.07
2022-09-28T03:21:06.402Z,41.96
2022-09-28T03:22:14.116Z,41.99
2022-09-28T03:23:25.461Z,42.02
2022-09-28T03:24:33.712Z,42.71
2022-09-28T03:25:42.121Z,43.05
2022-09-28T03:26:49.351Z,43.14
2022-09-28T03:27:56.961Z,43.06
2022-09-28T03:29:05.182Z,42.95
2022-09-28T03:30:13.417Z,43.08
2022-09-28T03:31:22.346Z,43.05
2022-09-28T03:32:29.571Z,43.16
2022-09-28T03:33:37.341Z,43.13
2022-09-28T03:34:45.407Z,43.16
2022-09-28T03:35:53.273Z,43.09
2022-09-28T03:37:01.394Z,43.03
2022-09-28T03:38:09.300Z,43.12
2022-09-28T03:39:18.173Z,43.04
2022-09-28T03:40:26.072Z,42.96
2022-09-28T03:41:33.588Z,42.92
2022-09-28T03:42:41.670Z,42.94
2022-09-28T03:43:49.339Z,42.96
2022-09-28T03:44:57.353Z,42.95
2022-09-28T03:46:05.659Z,42.92
2022-09-28T03:47:19.789Z,43.04
2022-09-28T03:48:32.405Z,42.96
2022-09-28T03:49:42.048Z,42.83
2022-09-28T03:50:51.188Z,43.03
2022-09-28T03:51:59.360Z,43.08
2022-09-28T03:53:10.945Z,43.08
2022-09-28T03:54:18.568Z,43.30
2022-09-28T03:55:26.205Z,43.33
2022-09-28T03:56:53.711Z,43.22
2022-09-28T03:58:01.313Z,43.41
2022-09-28T03:59:32.607Z,43.88
2022-09-28T04:00:40.694Z,44.36
2022-09-28T04:01:58.398Z,44.55
2022-09-28T04:03:10.252Z,44.49
2022-09-28T04:04:18.038Z,44.50
2022-09-28T04:05:25.952Z,44.45
2022-09-28T04:06:33.238Z,44.48
2022-09-28T04:07:40.691Z,44.45
2022-09-28T04:08:48.381Z,44.20
2022-09-28T04:09:56.555Z,44.29
2022-09-28T04:11:10.558Z,44.36
2022-09-28T04:12:21.749Z,44.37
2022-09-28T04:13:29.689Z,44.25
2022-09-28T04:14:38.234Z,44.17
2022-09-28T04:15:45.748Z,44.29
2022-09-28T04:16:56.113Z,44.25
2022-09-28T04:18:06.628Z,44.60
2022-09-28T04:19:28.350Z,44.78
2022-09-28T04:21:15.539Z,44.91
2022-09-28T04:22:26.155Z,44.67
2022-09-28T04:23:33.930Z,44.17
2022-09-28T04:24:43.405Z,43.83
2022-09-28T04:25:54.997Z,43.72
2022-09-28T04:27:22.897Z,43.84
2022-09-28T04:28:49.006Z,43.75
2022-09-28T04:29:59.738Z,43.66
2022-09-28T04:31:12.018Z,43.65
2022-09-28T04:32:20.038Z,43.56
2022-09-28T04:33:27.941Z,43.38
2022-09-28T04:34:38.767Z,43.31
2022-09-28T04:35:50.022Z,43.13
2022-09-28T04:36:57.511Z,42.96
2022-09-28T04:38:05.256Z,43.01
2022-09-28T04:39:14.105Z,42.94
2022-09-28T04:40:24.662Z,42.88
2022-09-28T04:41:32.958Z,42.72
2022-09-28T04:42:43.693Z,42.49
2022-09-28T04:43:50.838Z,42.32
2022-09-28T04:45:00.176Z,42.08
2022-09-28T04:46:07.799Z,41.88
2022-09-28T04:47:23.244Z,41.74
2022-09-28T04:48:51.306Z,41.74
2022-09-28T04:50:18.665Z,41.56
2022-09-28T04:51:46.437Z,41.38
2022-09-28T04:52:56.027Z,41.48
2022-09-28T04:54:04.813Z,41.49
2022-09-28T04:55:17.610Z,41.40
2022-09-28T04:56:26.207Z,41.27
2022-09-28T04:57:38.055Z,41.01
2022-09-28T04:58:51.735Z,40.87
2022-09-28T05:00:02.702Z,40.80
2022-09-28T05:01:19.225Z,40.92
2022-09-28T05:02:37.036Z,40.92
2022-09-28T05:04:26.131Z,41.30
2022-09-28T05:05:53.906Z,41.56
2022-09-28T05:07:25.790Z,41.81
2022-09-28T05:08:35.477Z,42.00
2022-09-28T05:09:43.832Z,42.14
2022-09-28T05:10:56.408Z,42.28
2022-09-28T05:12:05.496Z,42.65
2022-09-28T05:13:16.027Z,42.75
2022-09-28T05:14:26.264Z,42.84
2022-09-28T05:15:36.076Z,42.72
2022-09-28T05:16:44.432Z,42.94
2022-09-28T05:18:17.715Z,42.89
2022-09-28T05:19:32.032Z,42.88
2022-09-28T05:20:43.775Z,43.01
2022-09-28T05:21:52.125Z,43.10
2022-09-28T05:23:04.535Z,43.07
2022-09-28T05:24:14.429Z,43.43
2022-09-28T05:25:26.893Z,43.89
2022-09-28T05:26:47.925Z,43.95
2022-09-28T05:28:00.439Z,43.74
2022-09-28T05:29:38.370Z,43.62
2022-09-28T05:31:06.152Z,43.56
2022-09-28T05:32:45.574Z,43.94
2022-09-28T05:34:10.287Z,44.15
2022-09-28T05:35:19.851Z,44.28
2022-09-28T05:36:29.918Z,44.17
2022-09-28T05:37:39.437Z,44.08
2022-09-28T05:38:47.717Z,44.10
2022-09-28T05:39:57.146Z,44.10
2022-09-28T05:41:07.026Z,44.13
2022-09-28T05:42:16.757Z,44.20
2022-09-28T05:43:26.251Z,44.47
2022-09-28T05:44:34.087Z,44.51
2022-09-28T05:45:43.514Z,44.76
2022-09-28T05:46:52.203Z,44.70
2022-09-28T05:48:01.830Z,44.81
2022-09-28T05:49:10.621Z,44.89
2022-09-28T05:50:20.776Z,45.30
2022-09-28T05:51:30.215Z,45.91
2022-09-28T05:52:38.534Z,46.12
2022-09-28T05:53:47.701Z,46.44
2022-09-28T05:54:57.817Z,47.02
2022-09-28T05:56:08.035Z,46.94
2022-09-28T05:57:20.562Z,47.16
2022-09-28T05:58:30.330Z,47.88
2022-09-28T05:59:39.481Z,48.09
2022-09-28T06:00:47.532Z,48.29
2022-09-28T06:01:56.439Z,48.48
2022-09-28T06:03:10.086Z,48.51
2022-09-28T06:04:18.705Z,48.84
2022-09-28T06:05:31.638Z,48.83
2022-09-28T06:06:40.540Z,48.91
2022-09-28T06:07:48.916Z,48.91
2022-09-28T06:08:57.793Z,49.10
2022-09-28T06:10:30.844Z,49.20
2022-09-28T06:11:41.883Z,49.36
2022-09-28T06:12:59.893Z,50.01
2022-09-28T06:14:09.464Z,50.17
2022-09-28T06:15:19.776Z,49.99
2022-09-28T06:16:28.250Z,49.81
2022-09-28T06:17:36.978Z,49.86
2022-09-28T06:19:15.406Z,50.20
2022-09-28T06:20:44.777Z,50.46
2022-09-28T06:21:59.271Z,50.32
2022-09-28T06:23:09.382Z,50.45
2022-09-28T06:24:18.630Z,50.39
2022-09-28T06:25:29.580Z,50.34
2022-09-28T06:26:38.601Z,50.74
2022-09-28T06:27:56.125Z,51.11
2022-09-28T06:29:05.277Z,51.28
2022-09-28T06:30:14.423Z,51.24
2022-09-28T06:31:26.073Z,51.38
2022-09-28T06:32:34.983Z,51.52
2022-09-28T06:33:44.487Z,51.23
2022-09-28T06:34:56.283Z,51.25
2022-09-28T06:36:08.387Z,51.09
2022-09-28T06:37:18.011Z,51.04
2022-09-28T06:38:29.447Z,51.22
2022-09-28T06:39:37.477Z,51.16
2022-09-28T06:40:45.901Z,51.17
2022-09-28T06:41:54.435Z,51.22
2022-09-28T06:43:14.391Z,51.01
2022-09-28T06:45:02.413Z,51.11
2022-09-28T06:46:27.381Z,51.24
2022-09-28T06:48:04.045Z,51.26
2022-09-28T06:49:21.838Z,51.08
2022-09-28T06:50:49.916Z,50.76
2022-09-28T06:52:09.210Z,50.73
2022-09-28T06:53:37.549Z,51.07
2022-09-28T06:55:14.026Z,50.84
2022-09-28T06:56:27.302Z,50.59
2022-09-28T06:57:39.638Z,50.67
2022-09-28T06:58:47.730Z,50.71
2022-09-28T06:59:55.891Z,50.38
2022-09-28T07:01:04.273Z,50.35
2022-09-28T07:02:25.728Z,50.10
2022-09-28T07:04:04.203Z,49.81
2022-09-28T07:05:31.991Z,49.94
2022-09-28T07:07:03.658Z,50.19
2022-09-28T07:08:36.315Z,50.21
2022-09-28T07:10:03.294Z,50.16
2022-09-28T07:11:46.780Z,50.23
2022-09-28T07:13:49.445Z,50.52
2022-09-28T07:15:01.047Z,50.76
2022-09-28T07:16:14.900Z,50.93
2022-09-28T07:17:24.760Z,51.09
2022-09-28T07:18:33.636Z,51.06
2022-09-28T07:19:41.959Z,51.23
2022-09-28T07:20:54.596Z,51.77
2022-09-28T07:22:05.560Z,52.19
2022-09-28T07:23:19.303Z,51.96
2022-09-28T07:25:01.359Z,52.28
2022-09-28T07:26:28.887Z,52.03
2022-09-28T07:27:43.670Z,52.12
2022-09-28T07:29:25.704Z,52.50
2022-09-28T07:30:52.610Z,52.59
2022-09-28T07:32:25.511Z,52.86
2022-09-28T07:34:04.756Z,52.90
2022-09-28T07:35:36.359Z,52.96
2022-09-28T07:36:45.107Z,53.15
2022-09-28T07:38:00.855Z,53.17
2022-09-28T07:39:09.665Z,53.48
2022-09-28T07:40:43.200Z,53.38
2022-09-28T07:41:59.732Z,54.17
2022-09-28T07:43:15.088Z,54.54
2022-09-28T07:44:25.071Z,54.31
2022-09-28T07:45:40.076Z,54.25
2022-09-28T07:46:48.157Z,54.28
2022-09-28T07:48:06.523Z,54.47
2022-09-28T07:49:34.162Z,54.76
2022-09-28T07:51:20.927Z,54.98
2022-09-28T07:52:47.713Z,55.22
2022-09-28T07:54:08.410Z,55.26
2022-09-28T07:55:37.078Z,55.29
2022-09-28T07:56:50.310Z,55.09
2022-09-28T07:58:18.083Z,55.24
2022-09-28T07:59:56.425Z,55.53
2022-09-28T08:01:26.866Z,55.33
2022-09-28T08:02:36.855Z,55.55
2022-09-28T08:03:47.106Z,55.86
2022-09-28T08:04:55.527Z,56.29
2022-09-28T08:06:06.658Z,56.44
2022-09-28T08:07:23.708Z,56.35
2022-09-28T08:08:45.712Z,56.25
2022-09-28T08:09:56.175Z,56.49
2022-09-28T08:11:12.904Z,56.51
2022-09-28T08:12:43.782Z,56.43
2022-09-28T08:14:10.716Z,56.58
2022-09-28T08:15:38.969Z,57.46
2022-09-28T08:16:57.982Z,58.65
2022-09-28T08:18:20.825Z,59.11
2022-09-28T08:19:49.682Z,59.66
2022-09-28T08:21:16.192Z,59.68
2022-09-28T08:22:26.043Z,59.56
2022-09-28T08:23:37.053Z,59.55
2022-09-28T08:24:46.098Z,59.38
2022-09-28T08:25:55.839Z,59.27
2022-09-28T08:27:04.782Z,59.06
2022-09-28T08:28:14.927Z,59.14
2022-09-28T08:29:28.867Z,59.25
2022-09-28T08:30:58.107Z,59.20
2022-09-28T08:32:15.572Z,59.06
2022-09-28T08:33:55.482Z,59.09
2022-09-28T08:35:22.555Z,59.17
2022-09-28T08:36:53.770Z,59.73
2022-09-28T08:38:35.382Z,60.09
2022-09-28T08:40:27.522Z,60.09
2022-09-28T08:42:03.820Z,60.05
2022-09-28T08:43:40.440Z,59.56
2022-09-28T08:45:22.788Z,59.05
2022-09-28T08:46:51.309Z,58.74
2022-09-28T08:49:06.619Z,58.12
2022-09-28T08:50:55.758Z,57.75
2022-09-28T08:52:25.183Z,57.62
2022-09-28T08:54:48.360Z,57.36
2022-09-28T08:56:10.275Z,57.06
2022-09-28T08:57:34.034Z,56.89
2022-09-28T08:58:44.497Z,56.84
2022-09-28T09:00:02.814Z,56.76
2022-09-28T09:01:18.279Z,56.76
2022-09-28T09:02:35.145Z,56.85
2022-09-28T09:03:57.263Z,56.77
2022-09-28T09:05:22.152Z,57.04
2022-09-28T09:06:59.706Z,57.18
2022-09-28T09:08:41.400Z,57.01
2022-09-28T09:10:03.741Z,57.08
2022-09-28T09:11:33.352Z,57.21
2022-09-28T09:13:02.318Z,57.24
2022-09-28T09:14:36.222Z,57.18
2022-09-28T09:15:59.588Z,57.71
2022-09-28T09:17:54.289Z,57.75
2022-09-28T09:19:38.596Z,57.72
2022-09-28T09:21:24.366Z,57.65
2022-09-28T09:22:37.604Z,57.63
2022-09-28T09:23:58.213Z,57.61
2022-09-28T09:25:28.828Z,57.53
2022-09-28T09:26:41.696Z,57.77
2022-09-28T09:28:03.952Z,58.11
2022-09-28T09:29:46.506Z,58.19
2022-09-28T09:31:13.139Z,58.24
2022-09-28T09:33:06.734Z,58.64
2022-09-28T09:34:34.117Z,58.90
2022-09-28T09:36:41.327Z,59.37
2022-09-28T09:38:28.622Z,59.34
2022-09-28T09:40:28.444Z,59.35
2022-09-28T09:42:12.143Z,60.00
2022-09-28T09:44:31.607Z,61.91
2022-09-28T09:46:42.441Z,62.63
2022-09-28T09:48:06.578Z,61.81
2022-09-28T09:49:32.107Z,61.92
2022-09-28T09:50:58.819Z,61.82
2022-09-28T09:52:28.721Z,61.42
2022-09-28T09:53:43.639Z,61.25
2022-09-28T09:54:58.665Z,61.31
2022-09-28T09:56:20.957Z,61.15
2022-09-28T09:57:55.057Z,61.61
2022-09-28T09:59:29.756Z,61.64
2022-09-28T10:00:47.026Z,61.64
2022-09-28T10:02:29.966Z,61.62
2022-09-28T10:04:00.574Z,61.89
2022-09-28T10:05:15.681Z,62.25
2022-09-28T10:06:29.736Z,62.42
2022-09-28T10:07:43.591Z,62.35
2022-09-28T10:09:14.937Z,62.65
2022-09-28T10:10:26.765Z,63.01
2022-09-28T10:11:51.970Z,62.95
2022-09-28T10:13:01.227Z,62.87
2022-09-28T10:14:10.772Z,62.57
2022-09-28T10:15:32.868Z,62.58
2022-09-28T10:16:51.210Z,62.51
2022-09-28T10:18:19.063Z,62.63
2022-09-28T10:19:45.729Z,62.58
2022-09-28T10:21:25.294Z,63.07
2022-09-28T10:22:40.048Z,63.24
2022-09-28T10:23:57.243Z,63.90
2022-09-28T10:25:12.296Z,63.75
2022-09-28T10:26:36.436Z,64.13
2022-09-28T10:27:47.991Z,64.58
2022-09-28T10:29:20.230Z,64.82
2022-09-28T10:30:30.359Z,64.70
2022-09-28T10:31:43.570Z,64.79
2022-09-28T10:33:03.297Z,64.83
2022-09-28T10:34:17.168Z,64.70
2022-09-28T10:35:29.957Z,64.72
2022-09-28T10:37:00.369Z,64.78
2022-09-28T10:38:19.427Z,64.89
2022-09-28T10:39:55.585Z,65.18
2022-09-28T10:41:12.251Z,66.00
2022-09-28T10:42:34.417Z,66.45
2022-09-28T10:43:57.420Z,66.60
2022-09-28T10:45:11.602Z,66.81
2022-09-28T10:46:26.752Z,67.08
2022-09-28T10:47:36.148Z,66.83
2022-09-28T10:48:53.859Z,66.59
2022-09-28T10:50:05.883Z,66.35
2022-09-28T10:51:14.648Z,66.13
2022-09-28T10:52:32.648Z,65.89
2022-09-28T10:53:40.974Z,65.94
2022-09-28T10:55:35.149Z,65.63
2022-09-28T10:56:43.184Z,65.72
2022-09-28T10:57:55.412Z,66.05
2022-09-28T10:59:04.285Z,66.32
2022-09-28T11:00:39.390Z,66.61
2022-09-28T11:02:17.060Z,66.49
2022-09-28T11:03:30.086Z,66.28
2022-09-28T11:04:43.264Z,66.07
2022-09-28T11:06:10.362Z,66.06
2022-09-28T11:07:26.878Z,66.18
2022-09-28T11:08:44.756Z,66.45
2022-09-28T11:09:59.194Z,66.37
2022-09-28T11:11:18.316Z,66.44
2022-09-28T11:12:40.990Z,66.67
2022-09-28T11:13:50.984Z,66.69
2022-09-28T11:15:05.514Z,67.07
2022-09-28T11:16:27.567Z,67.80
2022-09-28T11:17:42.130Z,67.88
2022-09-28T11:18:50.749Z,67.78
2022-09-28T11:20:04.407Z,68.12
2022-09-28T11:21:21.274Z,68.26
2022-09-28T11:22:37.870Z,68.06
2022-09-28T11:24:11.903Z,68.04
2022-09-28T11:25:25.751Z,67.88
2022-09-28T11:26:44.196Z,67.87
2022-09-28T11:28:08.088Z,67.46
2022-09-28T11:29:29.045Z,67.58
2022-09-28T11:31:14.180Z,68.03
2022-09-28T11:32:48.993Z,69.30
2022-09-28T11:34:57.580Z,69.56
2022-09-28T11:36:14.135Z,69.99
2022-09-28T11:37:36.037Z,69.86
2022-09-28T11:39:19.998Z,69.52
2022-09-28T11:40:46.159Z,69.54
2022-09-28T11:42:14.131Z,69.33
2022-09-28T11:43:48.406Z,69.30
2022-09-28T11:45:27.816Z,69.36
2022-09-28T11:47:12.921Z,69.11
2022-09-28T11:48:25.033Z,68.85
2022-09-28T11:49:41.759Z,69.08
2022-09-28T11:51:01.023Z,69.37
2022-09-28T11:52:49.437Z,69.44
2022-09-28T11:53:59.399Z,70.06
2022-09-28T11:55:34.598Z,70.23
2022-09-28T11:56:52.393Z,70.14
2022-09-28T11:58:08.919Z,70.20
2022-09-28T11:59:41.308Z,69.90
2022-09-28T12:00:54.739Z,69.92
2022-09-28T12:02:30.443Z,69.84
2022-09-28T12:03:50.415Z,69.75
2022-09-28T12:05:20.863Z,69.64
2022-09-28T12:06:37.097Z,69.40
2022-09-28T12:07:50.476Z,69.41
2022-09-28T12:09:25.628Z,69.37
2022-09-28T12:11:11.521Z,70.15
2022-09-28T12:13:04.644Z,71.04
2022-09-28T12:14:25.843Z,71.11
2022-09-28T12:16:27.235Z,71.52
2022-09-28T12:17:55.523Z,71.32
2022-09-28T12:19:11.129Z,71.57
2022-09-28T12:20:24.264Z,71.52
2022-09-28T12:21:40.623Z,71.25
2022-09-28T12:23:10.629Z,70.70
2022-09-28T12:24:40.417Z,70.32
2022-09-28T12:26:11.993Z,69.74
2022-09-28T12:27:30.807Z,69.65
2022-09-28T12:28:50.008Z,69.70
2022-09-28T12:30:14.177Z,69.78
2022-09-28T12:31:24.331Z,70.13
2022-09-28T12:32:43.871Z,70.88
2022-09-28T12:33:52.890Z,71.12
2022-09-28T12:35:02.135Z,70.96
2022-09-28T12:36:44.589Z,70.84
2022-09-28T12:38:10.855Z,70.84
2022-09-28T12:39:40.815Z,70.17
2022-09-28T12:40:59.926Z,69.60
2022-09-28T12:42:49.421Z,69.25
2022-09-28T12:44:15.071Z,69.26
2022-09-28T12:46:12.001Z,69.94
2022-09-28T12:47:47.419Z,70.10
2022-09-28T12:51:04.939Z,69.77
2022-09-28T12:52:47.047Z,69.45
2022-09-28T12:54:04.719Z,69.21
2022-09-28T12:55:18.831Z,68.96
2022-09-28T12:57:17.905Z,68.84
2022-09-28T12:58:38.754Z,69.06
2022-09-28T13:00:06.735Z,69.16
2022-09-28T13:01:25.156Z,69.04
2022-09-28T13:03:13.595Z,69.12
2022-09-28T13:04:39.303Z,69.92
2022-09-28T13:06:08.965Z,70.19
2022-09-28T13:07:26.489Z,70.57
2022-09-28T13:08:59.141Z,70.54
2022-09-28T13:10:34.682Z,70.25
2022-09-28T13:12:05.681Z,70.14
2022-09-28T13:13:49.477Z,70.26
2022-09-28T13:15:11.142Z,70.22
2022-09-28T13:16:32.351Z,70.33
2022-09-28T13:17:50.612Z,70.54
2022-09-28T13:19:18.267Z,70.34
2022-09-28T13:20:42.453Z,70.75
2022-09-28T13:21:57.326Z,71.08
2022-09-28T13:23:12.678Z,71.08
2022-09-28T13:24:32.548Z,71.08
2022-09-28T13:25:44.224Z,71.17
2022-09-28T13:26:52.381Z,71.26
2022-09-28T13:28:04.092Z,71.22
2022-09-28T13:29:20.456Z,71.47
2022-09-28T13:30:29.797Z,71.41
2022-09-28T13:31:46.836Z,71.01
2022-09-28T13:32:55.530Z,70.78
2022-09-28T13:34:05.176Z,70.55
2022-09-28T13:35:18.045Z,70.67
2022-09-28T13:36:34.989Z,71.65
2022-09-28T13:37:43.558Z,72.15
2022-09-28T13:38:51.247Z,72.58
2022-09-28T13:40:00.919Z,72.47
2022-09-28T13:41:11.309Z,72.51
2022-09-28T13:42:47.361Z,72.46
2022-09-28T13:44:14.130Z,72.53
2022-09-28T13:45:28.928Z,72.21
2022-09-28T13:47:12.681Z,71.89
2022-09-28T13:48:43.826Z,71.78
2022-09-28T13:50:05.231Z,71.81
2022-09-28T13:51:18.085Z,71.85
2022-09-28T13:52:46.649Z,71.76
2022-09-28T13:54:06.152Z,71.46
2022-09-28T13:55:35.108Z,71.06
2022-09-28T13:57:16.552Z,70.87
2022-09-28T13:58:40.352Z,70.87
2022-09-28T14:00:14.206Z,70.56
2022-09-28T14:01:26.216Z,70.18
2022-09-28T14:02:43.101Z,70.04
2022-09-28T14:04:23.452Z,69.96
2022-09-28T14:05:43.430Z,69.72
2022-09-28T14:06:58.948Z,69.33
2022-09-28T14:08:22.954Z,68.69
2022-09-28T14:09:47.326Z,68.07
2022-09-28T14:10:59.759Z,67.31
2022-09-28T14:12:37.286Z,66.60
2022-09-28T14:13:45.884Z,65.57
2022-09-28T14:14:54.156Z,65.05
2022-09-28T14:16:25.595Z,64.89
2022-09-28T14:18:03.827Z,64.31
2022-09-28T14:19:18.971Z,63.90
2022-09-28T14:20:28.400Z,63.32
2022-09-28T14:21:50.273Z,62.15
2022-09-28T14:23:31.208Z,61.10
2022-09-28T14:24:54.399Z,59.96
2022-09-28T14:26:17.362Z,59.29
2022-09-28T14:28:03.383Z,58.88
2022-09-28T14:29:31.485Z,58.46
2022-09-28T14:30:46.614Z,57.63
2022-09-28T14:31:55.123Z,56.83
2022-09-28T14:33:04.669Z,55.88
2022-09-28T14:34:34.238Z,55.38
2022-09-28T14:35:43.010Z,54.81
2022-09-28T14:37:13.484Z,54.26
2022-09-28T14:39:05.359Z,53.84
2022-09-28T14:40:39.205Z,53.03
2022-09-28T14:41:47.830Z,52.40
2022-09-28T14:43:31.299Z,51.56
2022-09-28T14:45:06.708Z,50.46
2022-09-28T14:46:17.686Z,49.06
2022-09-28T14:47:53.385Z,48.23
2022-09-28T14:49:07.101Z,47.50
2022-09-28T14:50:29.284Z,46.66
2022-09-28T14:51:39.876Z,45.75
2022-09-28T14:52:50.508Z,45.09
2022-09-28T14:54:02.665Z,44.59
2022-09-28T14:55:18.338Z,44.12
2022-09-28T14:56:31.851Z,43.58
2022-09-28T14:57:42.900Z,43.38
2022-09-28T14:58:55.337Z,42.53
2022-09-28T15:00:03.845Z,41.74
2022-09-28T15:01:19.297Z,41.17
2022-09-28T15:02:33.274Z,40.91
2022-09-28T15:03:41.257Z,41.01
2022-09-28T15:04:53.769Z,40.12
2022-09-28T15:06:03.488Z,39.51
2022-09-28T15:07:32.125Z,38.65
2022-09-28T15:08:41.009Z,38.35
2022-09-28T15:09:52.328Z,38.04
2022-09-28T15:11:00.552Z,37.67
2022-09-28T15:12:18.568Z,37.26
2022-09-28T15:13:30.745Z,37.16
2022-09-28T15:15:04.437Z,37.33
2022-09-28T15:16:15.159Z,37.40
2022-09-28T15:17:29.628Z,36.83
2022-09-28T15:18:53.368Z,36.58
2022-09-28T15:20:19.751Z,36.24
2022-09-28T15:21:43.901Z,36.20
2022-09-28T15:22:59.061Z,35.76
2022-09-28T15:24:28.651Z,35.31
2022-09-28T15:25:43.975Z,35.74
2022-09-28T15:26:54.987Z,35.82
2022-09-28T15:28:19.578Z,35.82
2022-09-28T15:29:35.422Z,36.11
2022-09-28T15:30:47.087Z,36.69
2022-09-28T15:31:55.510Z,37.46
2022-09-28T15:33:23.967Z,37.34
2022-09-28T15:34:54.571Z,37.45
2022-09-28T15:36:05.429Z,37.65
2022-09-28T15:37:14.891Z,37.46
2022-09-28T15:38:23.605Z,36.66
2022-09-28T15:39:36.686Z,35.86
2022-09-28T15:40:48.855Z,34.91
2022-09-28T15:41:56.755Z,34.57
2022-09-28T15:43:12.492Z,34.40
2022-09-28T15:44:31.507Z,34.15
2022-09-28T15:45:42.746Z,33.99
2022-09-28T15:46:58.858Z,33.32
2022-09-28T15:48:34.315Z,33.46
2022-09-28T15:49:46.599Z,33.61
2022-09-28T15:51:13.564Z,33.75
2022-09-28T15:52:38.682Z,33.83
2022-09-28T15:54:07.840Z,34.18
2022-09-28T15:55:23.703Z,34.38
2022-09-28T15:56:33.035Z,34.63
2022-09-28T15:57:41.804Z,34.69
2022-09-28T15:59:11.973Z,34.41
2022-09-28T16:00:32.034Z,34.53
2022-09-28T16:01:45.197Z,34.63
2022-09-28T16:03:02.663Z,34.53
2022-09-28T16:04:58.206Z,34.32
2022-09-28T16:06:11.367Z,34.59
2022-09-28T16:07:25.491Z,34.39
2022-09-28T16:08:41.157Z,34.46
2022-09-28T16:10:06.019Z,33.91
2022-09-28T16:11:27.656Z,33.53
2022-09-28T16:12:40.588Z,33.50
2022-09-28T16:13:56.411Z,33.61
2022-09-28T16:15:21.462Z,33.25
2022-09-28T16:16:51.627Z,33.31
2022-09-28T16:18:06.186Z,33.48
2022-09-28T16:19:41.626Z,33.65
2022-09-28T16:21:00.403Z,33.74
2022-09-28T16:22:11.220Z,33.92
2022-09-28T16:23:18.732Z,34.44
2022-09-28T16:24:28.448Z,34.60
2022-09-28T16:25:38.447Z,34.36
2022-09-28T16:26:45.616Z,34.86
2022-09-28T16:27:56.403Z,35.36
2022-09-28T16:29:26.996Z,35.41
2022-09-28T16:30:35.220Z,35.54
2022-09-28T16:31:45.009Z,35.47
2022-09-28T16:32:58.712Z,35.12
2022-09-28T16:34:11.572Z,34.66
2022-09-28T16:35:30.443Z,34.90
2022-09-28T16:36:46.531Z,34.86
2022-09-28T16:38:05.156Z,34.54
2022-09-28T16:39:15.745Z,34.34
2022-09-28T16:40:23.190Z,33.94
2022-09-28T16:41:30.665Z,34.05
2022-09-28T16:42:37.987Z,34.37
2022-09-28T16:43:45.336Z,34.18
2022-09-28T16:44:52.478Z,33.97
2022-09-28T16:46:01.971Z,33.97
2022-09-28T16:47:09.590Z,33.54
2022-09-28T16:48:20.907Z,33.29
2022-09-28T16:49:29.586Z,32.23
2022-09-28T16:50:36.742Z,32.12
2022-09-28T16:51:44.567Z,32.09
2022-09-28T16:53:17.451Z,31.45
2022-09-28T16:54:44.079Z,31.05
2022-09-28T16:55:51.656Z,30.74
2022-09-28T16:56:58.924Z,30.36
2022-09-28T16:58:06.054Z,30.53
2022-09-28T16:59:14.002Z,30.04
2022-09-28T17:00:24.056Z,29.65